sensor_id;sensor_type;location;lat;lon;timestamp;P1;durP1;ratioP1;P2;durP2;ratioP2
10711;SDS011;5407;51.234;6.804;2022-12-18T00:02:19;3.78;;;3.47;;
10711;SDS011;5407;51.234;6.804;2022-12-18T00:04:47;3.50;;;3.20;;
10711;SDS011;5407;51.234;6.804;2022-12-18T00:07:13;3.70;;;3.40;;
10711;SDS011;5407;51.234;6.804;2022-12-18T00:09:40;3.55;;;3.25;;
10711;SDS011;5407;51.234;6.804;2022-12-18T00:12:07;3.92;;;3.55;;
10711;SDS011;5407;51.234;6.804;2022-12-18T00:14:36;3.63;;;3.33;;
10711;SDS011;5407;51.234;6.804;2022-12-18T00:17:03;4.00;;;3.50;;
10711;SDS011;5407;51.234;6.804;2022-12-18T00:19:29;3.60;;;3.30;;
10711;SDS011;5407;51.234;6.804;2022-12-18T00:21:57;3.53;;;3.17;;
10711;SDS011;5407;51.234;6.804;2022-12-18T00:24:24;3.65;;;3.35;;
10711;SDS011;5407;51.234;6.804;2022-12-18T00:26:51;3.35;;;3.05;;
10711;SDS011;5407;51.234;6.804;2022-12-18T00:29:19;5.28;;;3.63;;
10711;SDS011;5407;51.234;6.804;2022-12-18T00:31:48;3.60;;;3.30;;
10711;SDS011;5407;51.234;6.804;2022-12-18T00:34:15;3.95;;;3.55;;
10711;SDS011;5407;51.234;6.804;2022-12-18T00:36:42;4.88;;;3.33;;
10711;SDS011;5407;51.234;6.804;2022-12-18T00:39:11;3.60;;;3.30;;
10711;SDS011;5407;51.234;6.804;2022-12-18T00:41:38;3.47;;;3.17;;
10711;SDS011;5407;51.234;6.804;2022-12-18T00:44:24;3.45;;;3.15;;
10711;SDS011;5407;51.234;6.804;2022-12-18T00:46:52;3.60;;;3.30;;
10711;SDS011;5407;51.234;6.804;2022-12-18T00:49:19;3.90;;;3.50;;
10711;SDS011;5407;51.234;6.804;2022-12-18T00:51:47;4.18;;;3.78;;
10711;SDS011;5407;51.234;6.804;2022-12-18T00:54:14;3.35;;;3.05;;
10711;SDS011;5407;51.234;6.804;2022-12-18T00:56:42;3.45;;;3.15;;
10711;SDS011;5407;51.234;6.804;2022-12-18T00:59:09;3.42;;;3.13;;
10711;SDS011;5407;51.234;6.804;2022-12-18T01:01:37;3.65;;;3.35;;
10711;SDS011;5407;51.234;6.804;2022-12-18T01:04:06;3.55;;;3.25;;
10711;SDS011;5407;51.234;6.804;2022-12-18T01:06:34;3.28;;;2.97;;
10711;SDS011;5407;51.234;6.804;2022-12-18T01:09:01;3.17;;;2.88;;
10711;SDS011;5407;51.234;6.804;2022-12-18T01:11:29;4.03;;;3.35;;
10711;SDS011;5407;51.234;6.804;2022-12-18T01:13:56;3.70;;;3.40;;
10711;SDS011;5407;51.234;6.804;2022-12-18T01:16:23;3.50;;;3.20;;
10711;SDS011;5407;51.234;6.804;2022-12-18T01:18:51;3.25;;;2.95;;
10711;SDS011;5407;51.234;6.804;2022-12-18T01:21:21;3.10;;;2.80;;
10711;SDS011;5407;51.234;6.804;2022-12-18T01:23:50;3.25;;;2.95;;
10711;SDS011;5407;51.234;6.804;2022-12-18T01:26:18;3.40;;;3.10;;
10711;SDS011;5407;51.234;6.804;2022-12-18T01:28:45;4.15;;;2.60;;
10711;SDS011;5407;51.234;6.804;2022-12-18T01:31:14;2.83;;;2.63;;
10711;SDS011;5407;51.234;6.804;2022-12-18T01:33:44;3.08;;;2.88;;
10711;SDS011;5407;51.234;6.804;2022-12-18T01:36:16;2.95;;;2.70;;
10711;SDS011;5407;51.234;6.804;2022-12-18T01:38:45;3.13;;;2.83;;
10711;SDS011;5407;51.234;6.804;2022-12-18T01:41:13;3.33;;;3.03;;
10711;SDS011;5407;51.234;6.804;2022-12-18T01:43:44;3.45;;;3.15;;
10711;SDS011;5407;51.234;6.804;2022-12-18T01:46:12;3.45;;;3.15;;
10711;SDS011;5407;51.234;6.804;2022-12-18T01:48:40;3.25;;;2.95;;
10711;SDS011;5407;51.234;6.804;2022-12-18T01:51:08;3.33;;;3.03;;
10711;SDS011;5407;51.234;6.804;2022-12-18T01:53:37;2.90;;;2.70;;
10711;SDS011;5407;51.234;6.804;2022-12-18T01:56:08;2.92;;;2.72;;
10711;SDS011;5407;51.234;6.804;2022-12-18T01:58:42;3.17;;;2.88;;
10711;SDS011;5407;51.234;6.804;2022-12-18T02:01:15;3.50;;;3.00;;
10711;SDS011;5407;51.234;6.804;2022-12-18T02:03:42;2.97;;;2.78;;
10711;SDS011;5407;51.234;6.804;2022-12-18T02:06:12;3.30;;;3.00;;
10711;SDS011;5407;51.234;6.804;2022-12-18T02:08:47;3.13;;;2.85;;
10711;SDS011;5407;51.234;6.804;2022-12-18T02:11:20;3.38;;;3.08;;
10711;SDS011;5407;51.234;6.804;2022-12-18T02:13:59;3.20;;;2.90;;
10711;SDS011;5407;51.234;6.804;2022-12-18T02:16:35;3.00;;;2.70;;
10711;SDS011;5407;51.234;6.804;2022-12-18T02:19:14;2.65;;;2.45;;
10711;SDS011;5407;51.234;6.804;2022-12-18T02:21:52;3.33;;;3.05;;
10711;SDS011;5407;51.234;6.804;2022-12-18T02:24:28;3.10;;;2.80;;
10711;SDS011;5407;51.234;6.804;2022-12-18T02:27:03;3.22;;;2.92;;
10711;SDS011;5407;51.234;6.804;2022-12-18T02:29:34;3.53;;;3.22;;
10711;SDS011;5407;51.234;6.804;2022-12-18T02:32:06;3.13;;;2.83;;
10711;SDS011;5407;51.234;6.804;2022-12-18T02:34:37;2.88;;;2.67;;
10711;SDS011;5407;51.234;6.804;2022-12-18T02:37:10;2.90;;;2.70;;
10711;SDS011;5407;51.234;6.804;2022-12-18T02:39:42;3.33;;;3.03;;
10711;SDS011;5407;51.234;6.804;2022-12-18T02:42:13;2.70;;;2.50;;
10711;SDS011;5407;51.234;6.804;2022-12-18T02:44:41;3.50;;;3.20;;
10711;SDS011;5407;51.234;6.804;2022-12-18T02:47:09;3.28;;;2.97;;
10711;SDS011;5407;51.234;6.804;2022-12-18T02:49:40;3.20;;;2.90;;
10711;SDS011;5407;51.234;6.804;2022-12-18T02:52:17;3.20;;;2.90;;
10711;SDS011;5407;51.234;6.804;2022-12-18T02:54:55;3.03;;;2.80;;
10711;SDS011;5407;51.234;6.804;2022-12-18T02:57:33;3.22;;;2.92;;
10711;SDS011;5407;51.234;6.804;2022-12-18T03:00:04;3.38;;;3.08;;
10711;SDS011;5407;51.234;6.804;2022-12-18T03:02:38;3.00;;;2.80;;
10711;SDS011;5407;51.234;6.804;2022-12-18T03:05:12;3.38;;;2.70;;
10711;SDS011;5407;51.234;6.804;2022-12-18T03:07:42;3.05;;;2.78;;
10711;SDS011;5407;51.234;6.804;2022-12-18T03:10:14;2.80;;;2.60;;
10711;SDS011;5407;51.234;6.804;2022-12-18T03:12:49;3.20;;;2.90;;
10711;SDS011;5407;51.234;6.804;2022-12-18T03:15:21;3.22;;;2.92;;
10711;SDS011;5407;51.234;6.804;2022-12-18T03:18:02;3.10;;;2.70;;
10711;SDS011;5407;51.234;6.804;2022-12-18T03:20:32;3.08;;;2.78;;
10711;SDS011;5407;51.234;6.804;2022-12-18T03:23:03;3.10;;;2.80;;
10711;SDS011;5407;51.234;6.804;2022-12-18T03:25:34;3.20;;;2.85;;
10711;SDS011;5407;51.234;6.804;2022-12-18T03:28:07;2.80;;;2.60;;
10711;SDS011;5407;51.234;6.804;2022-12-18T03:30:39;2.92;;;2.67;;
10711;SDS011;5407;51.234;6.804;2022-12-18T03:33:08;2.92;;;2.70;;
10711;SDS011;5407;51.234;6.804;2022-12-18T03:35:43;2.83;;;2.60;;
10711;SDS011;5407;51.234;6.804;2022-12-18T03:38:11;2.45;;;2.25;;
10711;SDS011;5407;51.234;6.804;2022-12-18T03:40:45;2.78;;;2.58;;
10711;SDS011;5407;51.234;6.804;2022-12-18T03:43:28;2.70;;;2.50;;
10711;SDS011;5407;51.234;6.804;2022-12-18T03:46:03;3.00;;;2.78;;
10711;SDS011;5407;51.234;6.804;2022-12-18T03:48:35;2.80;;;2.60;;
10711;SDS011;5407;51.234;6.804;2022-12-18T03:51:10;3.20;;;2.90;;
10711;SDS011;5407;51.234;6.804;2022-12-18T03:53:44;2.83;;;2.60;;
10711;SDS011;5407;51.234;6.804;2022-12-18T03:56:22;3.30;;;2.63;;
10711;SDS011;5407;51.234;6.804;2022-12-18T03:58:53;3.17;;;2.88;;
10711;SDS011;5407;51.234;6.804;2022-12-18T04:01:25;2.80;;;2.60;;
10711;SDS011;5407;51.234;6.804;2022-12-18T04:04:02;3.30;;;3.00;;
10711;SDS011;5407;51.234;6.804;2022-12-18T04:06:34;2.88;;;2.67;;
10711;SDS011;5407;51.234;6.804;2022-12-18T04:09:02;2.67;;;2.47;;
10711;SDS011;5407;51.234;6.804;2022-12-18T04:11:33;3.17;;;2.70;;
10711;SDS011;5407;51.234;6.804;2022-12-18T04:14:04;3.20;;;2.75;;
10711;SDS011;5407;51.234;6.804;2022-12-18T04:16:30;3.00;;;2.80;;
10711;SDS011;5407;51.234;6.804;2022-12-18T04:19:01;2.75;;;2.55;;
10711;SDS011;5407;51.234;6.804;2022-12-18T04:21:32;2.58;;;2.38;;
10711;SDS011;5407;51.234;6.804;2022-12-18T04:23:59;3.30;;;2.80;;
10711;SDS011;5407;51.234;6.804;2022-12-18T04:26:27;2.95;;;2.75;;
10711;SDS011;5407;51.234;6.804;2022-12-18T04:29:22;2.80;;;2.60;;
10711;SDS011;5407;51.234;6.804;2022-12-18T04:31:48;2.80;;;2.60;;
10711;SDS011;5407;51.234;6.804;2022-12-18T04:34:16;2.72;;;2.53;;
10711;SDS011;5407;51.234;6.804;2022-12-18T04:36:48;2.85;;;2.65;;
10711;SDS011;5407;51.234;6.804;2022-12-18T04:39:15;3.10;;;2.80;;
10711;SDS011;5407;51.234;6.804;2022-12-18T04:41:43;3.10;;;2.60;;
10711;SDS011;5407;51.234;6.804;2022-12-18T04:44:11;3.00;;;2.70;;
10711;SDS011;5407;51.234;6.804;2022-12-18T04:46:39;2.90;;;2.70;;
10711;SDS011;5407;51.234;6.804;2022-12-18T04:49:06;3.00;;;2.75;;
10711;SDS011;5407;51.234;6.804;2022-12-18T04:51:35;2.97;;;2.67;;
10711;SDS011;5407;51.234;6.804;2022-12-18T04:54:02;2.80;;;2.60;;
10711;SDS011;5407;51.234;6.804;2022-12-18T04:56:30;3.22;;;2.90;;
10711;SDS011;5407;51.234;6.804;2022-12-18T04:58:57;3.00;;;2.80;;
10711;SDS011;5407;51.234;6.804;2022-12-18T05:01:24;2.65;;;2.45;;
10711;SDS011;5407;51.234;6.804;2022-12-18T05:03:53;3.67;;;2.60;;
10711;SDS011;5407;51.234;6.804;2022-12-18T05:06:19;2.88;;;2.60;;
10711;SDS011;5407;51.234;6.804;2022-12-18T05:08:46;2.58;;;2.38;;
10711;SDS011;5407;51.234;6.804;2022-12-18T05:11:14;2.42;;;2.22;;
10711;SDS011;5407;51.234;6.804;2022-12-18T05:13:42;2.60;;;2.40;;
10711;SDS011;5407;51.234;6.804;2022-12-18T05:16:09;2.60;;;2.40;;
10711;SDS011;5407;51.234;6.804;2022-12-18T05:18:36;3.03;;;2.70;;
10711;SDS011;5407;51.234;6.804;2022-12-18T05:21:04;3.08;;;2.53;;
10711;SDS011;5407;51.234;6.804;2022-12-18T05:23:32;2.60;;;2.40;;
10711;SDS011;5407;51.234;6.804;2022-12-18T05:26:02;2.60;;;2.40;;
10711;SDS011;5407;51.234;6.804;2022-12-18T05:28:31;2.70;;;2.50;;
10711;SDS011;5407;51.234;6.804;2022-12-18T05:31:00;2.75;;;2.55;;
10711;SDS011;5407;51.234;6.804;2022-12-18T05:33:29;2.60;;;2.40;;
10711;SDS011;5407;51.234;6.804;2022-12-18T05:35:58;2.67;;;2.28;;
10711;SDS011;5407;51.234;6.804;2022-12-18T05:38:27;2.58;;;2.38;;
10711;SDS011;5407;51.234;6.804;2022-12-18T05:40:56;2.60;;;2.40;;
10711;SDS011;5407;51.234;6.804;2022-12-18T05:43:23;2.92;;;2.70;;
10711;SDS011;5407;51.234;6.804;2022-12-18T05:45:51;2.88;;;2.58;;
10711;SDS011;5407;51.234;6.804;2022-12-18T05:48:19;2.63;;;2.42;;
10711;SDS011;5407;51.234;6.804;2022-12-18T05:50:46;2.83;;;2.63;;
10711;SDS011;5407;51.234;6.804;2022-12-18T05:53:15;3.00;;;2.70;;
10711;SDS011;5407;51.234;6.804;2022-12-18T05:55:46;2.40;;;2.20;;
10711;SDS011;5407;51.234;6.804;2022-12-18T05:58:14;2.40;;;2.20;;
10711;SDS011;5407;51.234;6.804;2022-12-18T06:00:42;2.63;;;2.42;;
10711;SDS011;5407;51.234;6.804;2022-12-18T06:03:11;2.53;;;2.33;;
10711;SDS011;5407;51.234;6.804;2022-12-18T06:05:40;2.70;;;2.50;;
10711;SDS011;5407;51.234;6.804;2022-12-18T06:08:08;2.97;;;2.33;;
10711;SDS011;5407;51.234;6.804;2022-12-18T06:10:36;2.70;;;2.50;;
10711;SDS011;5407;51.234;6.804;2022-12-18T06:13:05;2.60;;;2.40;;
10711;SDS011;5407;51.234;6.804;2022-12-18T06:15:32;2.70;;;2.50;;
10711;SDS011;5407;51.234;6.804;2022-12-18T06:18:02;2.55;;;2.35;;
10711;SDS011;5407;51.234;6.804;2022-12-18T06:20:29;2.65;;;2.45;;
10711;SDS011;5407;51.234;6.804;2022-12-18T06:22:56;2.80;;;2.40;;
10711;SDS011;5407;51.234;6.804;2022-12-18T06:25:23;2.90;;;2.70;;
10711;SDS011;5407;51.234;6.804;2022-12-18T06:27:50;2.70;;;2.50;;
10711;SDS011;5407;51.234;6.804;2022-12-18T06:30:18;2.63;;;2.42;;
10711;SDS011;5407;51.234;6.804;2022-12-18T06:32:45;2.70;;;2.38;;
10711;SDS011;5407;51.234;6.804;2022-12-18T06:35:12;2.60;;;2.40;;
10711;SDS011;5407;51.234;6.804;2022-12-18T06:37:39;2.55;;;2.35;;
10711;SDS011;5407;51.234;6.804;2022-12-18T06:40:06;4.15;;;2.28;;
10711;SDS011;5407;51.234;6.804;2022-12-18T06:42:33;2.50;;;2.30;;
10711;SDS011;5407;51.234;6.804;2022-12-18T06:45:00;3.00;;;2.70;;
10711;SDS011;5407;51.234;6.804;2022-12-18T06:47:28;2.60;;;2.40;;
10711;SDS011;5407;51.234;6.804;2022-12-18T06:49:55;2.63;;;2.05;;
10711;SDS011;5407;51.234;6.804;2022-12-18T06:52:22;2.63;;;2.42;;
10711;SDS011;5407;51.234;6.804;2022-12-18T06:54:49;2.10;;;2.00;;
10711;SDS011;5407;51.234;6.804;2022-12-18T06:57:16;2.75;;;2.55;;
10711;SDS011;5407;51.234;6.804;2022-12-18T06:59:43;2.65;;;2.42;;
10711;SDS011;5407;51.234;6.804;2022-12-18T07:02:10;4.25;;;2.47;;
10711;SDS011;5407;51.234;6.804;2022-12-18T07:04:40;6.65;;;2.63;;
10711;SDS011;5407;51.234;6.804;2022-12-18T07:07:07;2.90;;;2.53;;
10711;SDS011;5407;51.234;6.804;2022-12-18T07:09:34;4.55;;;2.53;;
10711;SDS011;5407;51.234;6.804;2022-12-18T07:12:01;7.13;;;2.30;;
10711;SDS011;5407;51.234;6.804;2022-12-18T07:14:30;3.15;;;2.40;;
10711;SDS011;5407;51.234;6.804;2022-12-18T07:16:56;3.08;;;2.53;;
10711;SDS011;5407;51.234;6.804;2022-12-18T07:19:23;3.65;;;2.70;;
10711;SDS011;5407;51.234;6.804;2022-12-18T07:21:52;2.38;;;2.17;;
10711;SDS011;5407;51.234;6.804;2022-12-18T07:24:19;5.18;;;2.63;;
10711;SDS011;5407;51.234;6.804;2022-12-18T07:26:45;4.25;;;2.70;;
10711;SDS011;5407;51.234;6.804;2022-12-18T07:29:13;5.43;;;2.45;;
10711;SDS011;5407;51.234;6.804;2022-12-18T07:31:40;2.85;;;2.30;;
10711;SDS011;5407;51.234;6.804;2022-12-18T07:34:09;2.53;;;2.30;;
10711;SDS011;5407;51.234;6.804;2022-12-18T07:36:37;4.30;;;2.42;;
10711;SDS011;5407;51.234;6.804;2022-12-18T07:39:05;4.93;;;2.50;;
10711;SDS011;5407;51.234;6.804;2022-12-18T07:41:32;3.67;;;2.58;;
10711;SDS011;5407;51.234;6.804;2022-12-18T07:44:08;3.95;;;2.40;;
10711;SDS011;5407;51.234;6.804;2022-12-18T07:46:36;3.72;;;2.67;;
10711;SDS011;5407;51.234;6.804;2022-12-18T07:49:02;3.92;;;2.58;;
10711;SDS011;5407;51.234;6.804;2022-12-18T07:51:29;2.60;;;2.40;;
10711;SDS011;5407;51.234;6.804;2022-12-18T07:53:56;2.70;;;2.40;;
10711;SDS011;5407;51.234;6.804;2022-12-18T07:56:24;2.70;;;2.50;;
10711;SDS011;5407;51.234;6.804;2022-12-18T07:58:51;2.50;;;2.30;;
10711;SDS011;5407;51.234;6.804;2022-12-18T08:01:18;2.88;;;2.60;;
10711;SDS011;5407;51.234;6.804;2022-12-18T08:03:45;2.83;;;2.63;;
10711;SDS011;5407;51.234;6.804;2022-12-18T08:06:12;2.97;;;2.67;;
10711;SDS011;5407;51.234;6.804;2022-12-18T08:08:38;2.70;;;2.50;;
10711;SDS011;5407;51.234;6.804;2022-12-18T08:11:07;2.67;;;2.45;;
10711;SDS011;5407;51.234;6.804;2022-12-18T08:13:35;2.70;;;2.50;;
10711;SDS011;5407;51.234;6.804;2022-12-18T08:16:03;5.85;;;2.50;;
10711;SDS011;5407;51.234;6.804;2022-12-18T08:18:31;2.70;;;2.50;;
10711;SDS011;5407;51.234;6.804;2022-12-18T08:21:07;3.10;;;2.80;;
10711;SDS011;5407;51.234;6.804;2022-12-18T08:23:35;3.45;;;2.38;;
10711;SDS011;5407;51.234;6.804;2022-12-18T08:26:02;2.90;;;2.60;;
10711;SDS011;5407;51.234;6.804;2022-12-18T08:28:29;3.05;;;2.83;;
10711;SDS011;5407;51.234;6.804;2022-12-18T08:30:57;3.00;;;2.80;;
10711;SDS011;5407;51.234;6.804;2022-12-18T08:33:24;2.50;;;2.30;;
10711;SDS011;5407;51.234;6.804;2022-12-18T08:35:52;2.70;;;2.50;;
10711;SDS011;5407;51.234;6.804;2022-12-18T08:38:19;3.03;;;2.65;;
10711;SDS011;5407;51.234;6.804;2022-12-18T08:40:46;3.10;;;2.90;;
10711;SDS011;5407;51.234;6.804;2022-12-18T08:43:13;2.95;;;2.60;;
10711;SDS011;5407;51.234;6.804;2022-12-18T08:45:58;2.83;;;2.58;;
10711;SDS011;5407;51.234;6.804;2022-12-18T08:48:25;2.55;;;2.35;;
10711;SDS011;5407;51.234;6.804;2022-12-18T08:50:55;2.78;;;2.58;;
10711;SDS011;5407;51.234;6.804;2022-12-18T08:53:23;3.00;;;2.70;;
10711;SDS011;5407;51.234;6.804;2022-12-18T08:55:50;3.10;;;2.80;;
10711;SDS011;5407;51.234;6.804;2022-12-18T08:58:17;2.97;;;2.67;;
10711;SDS011;5407;51.234;6.804;2022-12-18T09:00:44;2.90;;;2.60;;
10711;SDS011;5407;51.234;6.804;2022-12-18T09:03:13;2.80;;;2.60;;
10711;SDS011;5407;51.234;6.804;2022-12-18T09:05:39;2.70;;;2.50;;
10711;SDS011;5407;51.234;6.804;2022-12-18T09:08:06;2.67;;;2.47;;
10711;SDS011;5407;51.234;6.804;2022-12-18T09:10:34;3.10;;;2.80;;
10711;SDS011;5407;51.234;6.804;2022-12-18T09:13:07;3.55;;;2.88;;
10711;SDS011;5407;51.234;6.804;2022-12-18T09:15:34;2.97;;;2.60;;
10711;SDS011;5407;51.234;6.804;2022-12-18T09:18:00;3.17;;;2.88;;
10711;SDS011;5407;51.234;6.804;2022-12-18T09:20:28;2.97;;;2.70;;
10711;SDS011;5407;51.234;6.804;2022-12-18T09:22:56;2.90;;;2.70;;
10711;SDS011;5407;51.234;6.804;2022-12-18T09:25:23;3.25;;;2.95;;
10711;SDS011;5407;51.234;6.804;2022-12-18T09:27:49;3.30;;;2.80;;
10711;SDS011;5407;51.234;6.804;2022-12-18T09:30:16;3.28;;;2.97;;
10711;SDS011;5407;51.234;6.804;2022-12-18T09:32:43;3.30;;;3.00;;
10711;SDS011;5407;51.234;6.804;2022-12-18T09:35:10;2.88;;;2.50;;
10711;SDS011;5407;51.234;6.804;2022-12-18T09:37:38;3.05;;;2.80;;
10711;SDS011;5407;51.234;6.804;2022-12-18T09:40:12;3.10;;;2.80;;
10711;SDS011;5407;51.234;6.804;2022-12-18T09:42:40;2.83;;;2.63;;
10711;SDS011;5407;51.234;6.804;2022-12-18T09:45:08;2.75;;;2.55;;
10711;SDS011;5407;51.234;6.804;2022-12-18T09:47:41;3.13;;;2.83;;
10711;SDS011;5407;51.234;6.804;2022-12-18T09:50:15;3.10;;;2.80;;
10711;SDS011;5407;51.234;6.804;2022-12-18T09:52:50;3.40;;;3.10;;
10711;SDS011;5407;51.234;6.804;2022-12-18T09:55:22;3.35;;;3.00;;
10711;SDS011;5407;51.234;6.804;2022-12-18T09:57:53;3.17;;;2.88;;
10711;SDS011;5407;51.234;6.804;2022-12-18T10:00:24;2.70;;;2.50;;
10711;SDS011;5407;51.234;6.804;2022-12-18T10:02:52;2.80;;;2.60;;
10711;SDS011;5407;51.234;6.804;2022-12-18T10:05:27;3.00;;;2.70;;
10711;SDS011;5407;51.234;6.804;2022-12-18T10:08:02;3.30;;;3.00;;
10711;SDS011;5407;51.234;6.804;2022-12-18T10:10:35;3.42;;;3.00;;
10711;SDS011;5407;51.234;6.804;2022-12-18T10:13:09;2.90;;;2.70;;
10711;SDS011;5407;51.234;6.804;2022-12-18T10:15:47;3.25;;;2.85;;
10711;SDS011;5407;51.234;6.804;2022-12-18T10:18:22;3.00;;;2.80;;
10711;SDS011;5407;51.234;6.804;2022-12-18T10:20:59;3.17;;;2.88;;
10711;SDS011;5407;51.234;6.804;2022-12-18T10:23:32;3.13;;;2.90;;
10711;SDS011;5407;51.234;6.804;2022-12-18T10:26:05;2.90;;;2.70;;
10711;SDS011;5407;51.234;6.804;2022-12-18T10:28:34;3.40;;;2.72;;
10711;SDS011;5407;51.234;6.804;2022-12-18T10:31:04;3.15;;;2.85;;
10711;SDS011;5407;51.234;6.804;2022-12-18T10:33:33;3.55;;;3.00;;
10711;SDS011;5407;51.234;6.804;2022-12-18T10:36:00;3.42;;;3.13;;
10711;SDS011;5407;51.234;6.804;2022-12-18T10:38:28;3.15;;;2.92;;
10711;SDS011;5407;51.234;6.804;2022-12-18T10:40:59;3.30;;;3.00;;
10711;SDS011;5407;51.234;6.804;2022-12-18T10:43:28;2.80;;;2.60;;
10711;SDS011;5407;51.234;6.804;2022-12-18T10:46:00;2.90;;;2.70;;
10711;SDS011;5407;51.234;6.804;2022-12-18T10:48:31;3.40;;;3.10;;
10711;SDS011;5407;51.234;6.804;2022-12-18T10:50:59;3.58;;;3.00;;
10711;SDS011;5407;51.234;6.804;2022-12-18T10:53:27;3.30;;;3.00;;
10711;SDS011;5407;51.234;6.804;2022-12-18T10:55:56;3.40;;;3.10;;
10711;SDS011;5407;51.234;6.804;2022-12-18T10:58:27;4.18;;;3.00;;
10711;SDS011;5407;51.234;6.804;2022-12-18T11:03:45;3.15;;;2.90;;
10711;SDS011;5407;51.234;6.804;2022-12-18T11:06:24;3.50;;;3.20;;
10711;SDS011;5407;51.234;6.804;2022-12-18T11:08:57;3.20;;;2.90;;
10711;SDS011;5407;51.234;6.804;2022-12-18T11:11:27;3.00;;;2.80;;
10711;SDS011;5407;51.234;6.804;2022-12-18T11:13:59;3.35;;;3.05;;
10711;SDS011;5407;51.234;6.804;2022-12-18T11:16:29;4.18;;;3.03;;
10711;SDS011;5407;51.234;6.804;2022-12-18T11:19:10;4.57;;;2.95;;
10711;SDS011;5407;51.234;6.804;2022-12-18T11:21:46;2.97;;;2.72;;
10711;SDS011;5407;51.234;6.804;2022-12-18T11:24:17;3.00;;;2.70;;
10711;SDS011;5407;51.234;6.804;2022-12-18T11:26:48;3.10;;;2.80;;
10711;SDS011;5407;51.234;6.804;2022-12-18T11:29:16;3.35;;;3.05;;
10711;SDS011;5407;51.234;6.804;2022-12-18T11:31:44;3.20;;;2.90;;
10711;SDS011;5407;51.234;6.804;2022-12-18T11:34:12;3.35;;;3.05;;
10711;SDS011;5407;51.234;6.804;2022-12-18T11:36:44;3.60;;;2.90;;
10711;SDS011;5407;51.234;6.804;2022-12-18T11:39:15;3.20;;;2.90;;
10711;SDS011;5407;51.234;6.804;2022-12-18T11:41:47;3.20;;;2.90;;
10711;SDS011;5407;51.234;6.804;2022-12-18T11:44:38;2.97;;;2.78;;
10711;SDS011;5407;51.234;6.804;2022-12-18T11:47:10;3.65;;;3.35;;
10711;SDS011;5407;51.234;6.804;2022-12-18T11:49:42;4.95;;;3.30;;
10711;SDS011;5407;51.234;6.804;2022-12-18T11:52:15;3.65;;;2.83;;
10711;SDS011;5407;51.234;6.804;2022-12-18T11:54:45;3.83;;;3.08;;
10711;SDS011;5407;51.234;6.804;2022-12-18T11:57:15;13.10;;;4.90;;
10711;SDS011;5407;51.234;6.804;2022-12-18T11:59:52;15.77;;;5.78;;
10711;SDS011;5407;51.234;6.804;2022-12-18T12:05:28;19.65;;;7.65;;
10711;SDS011;5407;51.234;6.804;2022-12-18T12:08:08;11.25;;;5.88;;
10711;SDS011;5407;51.234;6.804;2022-12-18T12:10:46;12.43;;;6.03;;
10711;SDS011;5407;51.234;6.804;2022-12-18T12:13:33;13.25;;;5.80;;
10711;SDS011;5407;51.234;6.804;2022-12-18T12:16:13;11.38;;;5.95;;
10711;SDS011;5407;51.234;6.804;2022-12-18T12:18:50;8.23;;;5.18;;
10711;SDS011;5407;51.234;6.804;2022-12-18T12:21:35;8.93;;;4.78;;
10711;SDS011;5407;51.234;6.804;2022-12-18T12:24:10;10.70;;;5.53;;
10711;SDS011;5407;51.234;6.804;2022-12-18T12:26:49;9.40;;;5.38;;
10711;SDS011;5407;51.234;6.804;2022-12-18T12:29:28;8.10;;;4.63;;
10711;SDS011;5407;51.234;6.804;2022-12-18T12:32:12;9.65;;;5.07;;
10711;SDS011;5407;51.234;6.804;2022-12-18T12:34:51;8.15;;;4.55;;
10711;SDS011;5407;51.234;6.804;2022-12-18T12:37:33;7.38;;;4.78;;
10711;SDS011;5407;51.234;6.804;2022-12-18T12:40:11;6.90;;;4.78;;
10711;SDS011;5407;51.234;6.804;2022-12-18T12:42:48;10.00;;;4.85;;
10711;SDS011;5407;51.234;6.804;2022-12-18T12:45:40;8.32;;;4.88;;
10711;SDS011;5407;51.234;6.804;2022-12-18T12:48:13;6.78;;;4.60;;
10711;SDS011;5407;51.234;6.804;2022-12-18T12:50:46;7.68;;;4.97;;
10711;SDS011;5407;51.234;6.804;2022-12-18T12:53:17;8.98;;;4.65;;
10711;SDS011;5407;51.234;6.804;2022-12-18T12:55:50;6.53;;;4.93;;
10711;SDS011;5407;51.234;6.804;2022-12-18T12:58:19;7.50;;;5.28;;
10711;SDS011;5407;51.234;6.804;2022-12-18T13:01:00;6.43;;;5.10;;
10711;SDS011;5407;51.234;6.804;2022-12-18T13:03:35;6.47;;;4.90;;
10711;SDS011;5407;51.234;6.804;2022-12-18T13:06:10;6.82;;;4.50;;
10711;SDS011;5407;51.234;6.804;2022-12-18T13:08:53;6.20;;;4.70;;
10711;SDS011;5407;51.234;6.804;2022-12-18T13:11:34;5.88;;;4.72;;
10711;SDS011;5407;51.234;6.804;2022-12-18T13:14:20;5.55;;;4.45;;
10711;SDS011;5407;51.234;6.804;2022-12-18T13:16:51;5.53;;;4.35;;
10711;SDS011;5407;51.234;6.804;2022-12-18T13:19:22;6.10;;;4.90;;
10711;SDS011;5407;51.234;6.804;2022-12-18T13:21:52;6.60;;;4.38;;
10711;SDS011;5407;51.234;6.804;2022-12-18T13:24:22;4.90;;;4.38;;
10711;SDS011;5407;51.234;6.804;2022-12-18T13:26:52;5.32;;;4.60;;
10711;SDS011;5407;51.234;6.804;2022-12-18T13:29:40;6.07;;;4.50;;
10711;SDS011;5407;51.234;6.804;2022-12-18T13:38:02;5.47;;;4.20;;
10711;SDS011;5407;51.234;6.804;2022-12-18T13:40:54;4.82;;;4.32;;
10711;SDS011;5407;51.234;6.804;2022-12-18T13:43:29;6.03;;;4.25;;
10711;SDS011;5407;51.234;6.804;2022-12-18T13:46:06;6.72;;;4.78;;
10711;SDS011;5407;51.234;6.804;2022-12-18T13:48:58;5.38;;;4.43;;
10711;SDS011;5407;51.234;6.804;2022-12-18T13:51:30;6.30;;;4.70;;
10711;SDS011;5407;51.234;6.804;2022-12-18T13:53:59;4.57;;;4.18;;
10711;SDS011;5407;51.234;6.804;2022-12-18T13:56:28;4.50;;;4.07;;
10711;SDS011;5407;51.234;6.804;2022-12-18T13:59:03;5.05;;;4.30;;
10711;SDS011;5407;51.234;6.804;2022-12-18T14:01:41;5.13;;;4.63;;
10711;SDS011;5407;51.234;6.804;2022-12-18T14:04:11;4.97;;;4.47;;
10711;SDS011;5407;51.234;6.804;2022-12-18T14:06:44;4.80;;;4.40;;
10711;SDS011;5407;51.234;6.804;2022-12-18T14:09:13;5.85;;;4.40;;
10711;SDS011;5407;51.234;6.804;2022-12-18T14:11:45;5.70;;;4.28;;
10711;SDS011;5407;51.234;6.804;2022-12-18T14:14:13;4.85;;;4.40;;
10711;SDS011;5407;51.234;6.804;2022-12-18T14:16:42;4.75;;;4.30;;
10711;SDS011;5407;51.234;6.804;2022-12-18T14:19:12;4.55;;;3.90;;
10711;SDS011;5407;51.234;6.804;2022-12-18T14:21:45;5.00;;;4.50;;
10711;SDS011;5407;51.234;6.804;2022-12-18T14:24:13;4.50;;;4.10;;
10711;SDS011;5407;51.234;6.804;2022-12-18T14:26:42;8.80;;;4.45;;
10711;SDS011;5407;51.234;6.804;2022-12-18T14:29:23;7.15;;;4.13;;
10711;SDS011;5407;51.234;6.804;2022-12-18T14:32:04;8.77;;;4.20;;
10711;SDS011;5407;51.234;6.804;2022-12-18T14:34:34;5.65;;;4.63;;
10711;SDS011;5407;51.234;6.804;2022-12-18T14:37:01;6.07;;;4.45;;
10711;SDS011;5407;51.234;6.804;2022-12-18T14:39:28;6.25;;;4.70;;
10711;SDS011;5407;51.234;6.804;2022-12-18T14:41:55;4.50;;;4.07;;
10711;SDS011;5407;51.234;6.804;2022-12-18T14:44:22;5.03;;;4.53;;
10711;SDS011;5407;51.234;6.804;2022-12-18T14:46:49;5.15;;;4.60;;
10711;SDS011;5407;51.234;6.804;2022-12-18T14:49:21;7.35;;;4.60;;
10711;SDS011;5407;51.234;6.804;2022-12-18T14:51:53;5.13;;;4.60;;
10711;SDS011;5407;51.234;6.804;2022-12-18T14:54:21;4.35;;;3.95;;
10711;SDS011;5407;51.234;6.804;2022-12-18T14:56:51;4.82;;;4.32;;
10711;SDS011;5407;51.234;6.804;2022-12-18T14:59:24;6.57;;;4.15;;
10711;SDS011;5407;51.234;6.804;2022-12-18T15:01:56;5.32;;;4.25;;
10711;SDS011;5407;51.234;6.804;2022-12-18T15:04:26;6.90;;;4.97;;
10711;SDS011;5407;51.234;6.804;2022-12-18T15:07:06;4.85;;;4.35;;
10711;SDS011;5407;51.234;6.804;2022-12-18T15:09:38;4.60;;;4.20;;
10711;SDS011;5407;51.234;6.804;2022-12-18T15:12:15;4.80;;;4.40;;
10711;SDS011;5407;51.234;6.804;2022-12-18T15:14:59;6.03;;;4.70;;
10711;SDS011;5407;51.234;6.804;2022-12-18T15:17:27;5.57;;;4.90;;
10711;SDS011;5407;51.234;6.804;2022-12-18T15:19:58;5.13;;;4.63;;
10711;SDS011;5407;51.234;6.804;2022-12-18T15:22:29;5.70;;;5.10;;
10711;SDS011;5407;51.234;6.804;2022-12-18T15:25:00;4.88;;;4.47;;
10711;SDS011;5407;51.234;6.804;2022-12-18T15:27:30;4.75;;;4.28;;
10711;SDS011;5407;51.234;6.804;2022-12-18T15:32:44;4.93;;;4.53;;
10711;SDS011;5407;51.234;6.804;2022-12-18T15:35:13;5.22;;;4.70;;
10711;SDS011;5407;51.234;6.804;2022-12-18T15:37:43;5.25;;;4.72;;